Wetterdaten: aktuell Mittwoch, 06.05.2026 19:53
Datum Zeit Temp. A. Feuchte A. Luftdruck Regen Wind Richtung Richtung Taupunkt Windchill
06.05.2026 19:53 15,2 °C 71 % 999,1 hPa 0,0 l/m² 1,0 km/h (0 Bft) NW 325 ° 10,0 °C 15,2 °C
06.05.2026 19:51 15,2 °C 71 % 999,1 hPa 0,0 l/m² 8,3 km/h (2 Bft) NW±22.5° 325 ° 10,0 °C 14,2 °C
06.05.2026 19:49 15,3 °C 70 % 999,1 hPa 0,0 l/m² 7,0 km/h (2 Bft) N-NW±22.5° 330 ° 9,9 °C 15,0 °C
06.05.2026 19:47 15,5 °C 70 % 999,1 hPa 0,0 l/m² 7,0 km/h (2 Bft) N-NW±22.5° 330 ° 10,1 °C 15,2 °C
06.05.2026 19:45 15,5 °C 70 % 999,1 hPa 0,0 l/m² 7,6 km/h (2 Bft) N-NW±22.5° 330 ° 10,1 °C 14,8 °C
06.05.2026 19:43 15,6 °C 69 % 999,1 hPa 0,0 l/m² 6,3 km/h (2 Bft) NW±22.5° 325 ° 9,9 °C 15,6 °C
06.05.2026 19:41 15,7 °C 69 % 999,1 hPa 0,0 l/m² 5,9 km/h (2 Bft) NW±22.5° 315 ° 10,0 °C 15,7 °C
06.05.2026 19:39 15,7 °C 69 % 999,1 hPa 0,0 l/m² 5,9 km/h (2 Bft) NW±22.5° 315 ° 10,0 °C 15,7 °C
06.05.2026 19:37 15,8 °C 68 % 999,1 hPa 0,0 l/m² 0,7 km/h (0 Bft) NW 325 ° 9,9 °C 15,8 °C
06.05.2026 19:35 15,8 °C 68 % 999,1 hPa 0,0 l/m² 0,6 km/h (0 Bft) NW 325 ° 9,9 °C 15,8 °C
06.05.2026 19:33 15,8 °C 68 % 999,1 hPa 0,0 l/m² 6,1 km/h (2 Bft) NW±22.5° 320 ° 9,9 °C 15,8 °C
06.05.2026 19:31 15,8 °C 69 % 999,1 hPa 0,0 l/m² 6,1 km/h (2 Bft) NW±22.5° 320 ° 10,1 °C 15,8 °C
06.05.2026 19:29 15,9 °C 69 % 999,1 hPa 0,0 l/m² 5,9 km/h (2 Bft) NW±22.5° 325 ° 10,2 °C 15,9 °C
06.05.2026 19:27 15,9 °C 69 % 999,1 hPa 0,0 l/m² 5,7 km/h (1 Bft) NW±22.5° 305 ° 10,2 °C 15,9 °C
06.05.2026 19:24 15,9 °C 69 % 999,1 hPa 0,0 l/m² 5,7 km/h (1 Bft) NW±22.5° 305 ° 10,2 °C 15,9 °C
06.05.2026 19:23 16,0 °C 69 % 998,1 hPa 0,0 l/m² 4,7 km/h (1 Bft) N-NW 340 ° 10,3 °C 16,0 °C
06.05.2026 19:21 16,0 °C 69 % 998,1 hPa 0,0 l/m² 6,7 km/h (2 Bft) N-NW±22.5° 335 ° 10,3 °C 15,8 °C
06.05.2026 19:19 16,1 °C 69 % 998,1 hPa 0,0 l/m² 0,4 km/h (0 Bft) NW±22.5° 315 ° 10,4 °C 16,1 °C
06.05.2026 19:17 16,1 °C 69 % 998,1 hPa 0,0 l/m² 0,4 km/h (0 Bft) NW±22.5° 315 ° 10,4 °C 16,1 °C
06.05.2026 19:15 16,1 °C 68 % 998,1 hPa 0,0 l/m² 0,0 km/h (0 Bft) NW 310 ° 10,2 °C 16,1 °C
06.05.2026 19:13 16,1 °C 68 % 998,1 hPa 0,0 l/m² 0,1 km/h (0 Bft) NW 310 ° 10,2 °C 16,1 °C
06.05.2026 19:11 16,1 °C 68 % 998,1 hPa 0,0 l/m² 1,3 km/h (1 Bft) NW 315 ° 10,2 °C 16,1 °C
06.05.2026 19:09 16,2 °C 67 % 998,1 hPa 0,0 l/m² 1,3 km/h (1 Bft) NW 315 ° 10,1 °C 16,2 °C
06.05.2026 19:07 16,2 °C 67 % 998,1 hPa 0,0 l/m² 5,1 km/h (1 Bft) N-NW±22.5° 330 ° 10,1 °C 16,2 °C
06.05.2026 19:05 16,2 °C 66 % 998,1 hPa 0,0 l/m² 2,8 km/h (1 Bft) N-NW 340 ° 9,8 °C 16,2 °C
06.05.2026 19:03 16,2 °C 66 % 998,1 hPa 0,0 l/m² 2,8 km/h (1 Bft) N-NW 340 ° 9,8 °C 16,2 °C
06.05.2026 19:01 16,2 °C 66 % 998,1 hPa 0,0 l/m² 0,7 km/h (0 Bft) NW±22.5° 315 ° 9,8 °C 16,2 °C
06.05.2026 18:59 16,3 °C 65 % 998,1 hPa 0,0 l/m² 4,9 km/h (1 Bft) NW±45° 320 ° 9,7 °C 16,3 °C
06.05.2026 18:57 16,3 °C 64 % 998,1 hPa 0,0 l/m² 0,7 km/h (0 Bft) N-NW 335 ° 9,5 °C 16,3 °C
06.05.2026 18:55 16,3 °C 64 % 998,1 hPa 0,0 l/m² 0,7 km/h (0 Bft) N-NW 335 ° 9,5 °C 16,3 °C
06.05.2026 18:53 16,4 °C 64 % 998,0 hPa 0,0 l/m² 7,0 km/h (2 Bft) N-NW±22.5° 330 ° 9,6 °C 16,1 °C
06.05.2026 18:51 16,5 °C 62 % 998,0 hPa 0,0 l/m² 6,6 km/h (2 Bft) NW 320 ° 9,2 °C 16,4 °C
06.05.2026 18:49 16,5 °C 62 % 998,0 hPa 0,0 l/m² 6,6 km/h (2 Bft) NW 320 ° 9,2 °C 16,4 °C
06.05.2026 18:47 16,5 °C 62 % 998,0 hPa 0,0 l/m² 0,6 km/h (0 Bft) NW 320 ° 9,2 °C 16,5 °C
06.05.2026 18:44 16,6 °C 61 % 998,0 hPa 0,0 l/m² 0,4 km/h (0 Bft) NW 320 ° 9,0 °C 16,6 °C
06.05.2026 18:43 16,6 °C 61 % 998,0 hPa 0,0 l/m² 4,6 km/h (1 Bft) NW 320 ° 9,0 °C 16,6 °C
06.05.2026 18:41 16,7 °C 59 % 998,0 hPa 0,0 l/m² 4,6 km/h (1 Bft) NW 320 ° 8,6 °C 16,7 °C
06.05.2026 18:39 16,8 °C 57 % 998,0 hPa 0,0 l/m² 0,7 km/h (0 Bft) NW 320 ° 8,2 °C 16,8 °C
06.05.2026 18:37 16,8 °C 57 % 998,0 hPa 0,0 l/m² 3,4 km/h (1 Bft) NW 320 ° 8,2 °C 16,8 °C
06.05.2026 18:35 16,8 °C 56 % 998,0 hPa 0,0 l/m² 7,4 km/h (2 Bft) NW 315 ° 8,0 °C 16,3 °C
06.05.2026 18:33 17,0 °C 56 % 998,0 hPa 0,0 l/m² 7,4 km/h (2 Bft) NW 315 ° 8,2 °C 16,5 °C
_ Min-Zeit 06:17 15:37 15:35 - 00:00 - - 15:03 06:17
Minimum _ 13,3 °C 36 % 997,9 hPa - 0,0 km/h (0 Bft) - - 4,9 °C 13,3 °C
_ Max-Zeit 15:35 02:14 03:29 00:45 18:17 - - 00:00 15:29
Maximum _ 21,1 °C 86 % 999,1 hPa 0,4 l/m² 12,6 km/h
NW (3 Bft)
- - 12,5 °C 20,9 °C
Durchschnitt _ 16,5 °C 66 % 998,2 hPa #2,9 l/m² 3,5 km/h (1 Bft) SO - 9,4 °C 16,3 °C